sensor_id;sensor_type;location;lat;lon;timestamp;temperature;humidity
3100;DHT22;1560;52.746;13.474;2023-04-24T00:02:03;9.80;99.90
3100;DHT22;1560;52.746;13.474;2023-04-24T00:04:33;9.80;99.90
3100;DHT22;1560;52.746;13.474;2023-04-24T00:07:02;9.80;99.90
3100;DHT22;1560;52.746;13.474;2023-04-24T00:12:09;9.70;99.90
3100;DHT22;1560;52.746;13.474;2023-04-24T00:14:38;9.70;99.90
3100;DHT22;1560;52.746;13.474;2023-04-24T00:17:07;9.70;99.90
3100;DHT22;1560;52.746;13.474;2023-04-24T00:19:36;9.60;99.90
3100;DHT22;1560;52.746;13.474;2023-04-24T00:22:05;9.60;99.90
3100;DHT22;1560;52.746;13.474;2023-04-24T00:24:34;9.60;99.90
3100;DHT22;1560;52.746;13.474;2023-04-24T00:27:03;9.60;99.90
3100;DHT22;1560;52.746;13.474;2023-04-24T00:29:32;9.60;99.90
3100;DHT22;1560;52.746;13.474;2023-04-24T00:34:38;9.60;99.90
3100;DHT22;1560;52.746;13.474;2023-04-24T00:37:07;9.60;99.90
3100;DHT22;1560;52.746;13.474;2023-04-24T00:39:36;9.60;99.90
3100;DHT22;1560;52.746;13.474;2023-04-24T00:42:05;9.60;99.90
3100;DHT22;1560;52.746;13.474;2023-04-24T00:44:34;9.60;99.90
3100;DHT22;1560;52.746;13.474;2023-04-24T00:47:04;9.50;99.90
3100;DHT22;1560;52.746;13.474;2023-04-24T00:49:33;9.50;99.90
3100;DHT22;1560;52.746;13.474;2023-04-24T00:52:02;9.50;99.90
3100;DHT22;1560;52.746;13.474;2023-04-24T00:57:11;9.50;99.90
3100;DHT22;1560;52.746;13.474;2023-04-24T01:02:19;9.50;99.90
3100;DHT22;1560;52.746;13.474;2023-04-24T01:04:49;9.50;99.90
3100;DHT22;1560;52.746;13.474;2023-04-24T01:07:20;9.50;99.90
3100;DHT22;1560;52.746;13.474;2023-04-24T01:09:50;9.50;99.90
3100;DHT22;1560;52.746;13.474;2023-04-24T01:12:19;9.50;99.90
3100;DHT22;1560;52.746;13.474;2023-04-24T01:14:48;9.50;99.90
3100;DHT22;1560;52.746;13.474;2023-04-24T01:17:18;9.50;99.90
3100;DHT22;1560;52.746;13.474;2023-04-24T01:19:47;9.50;99.90
3100;DHT22;1560;52.746;13.474;2023-04-24T01:22:16;9.50;99.90
3100;DHT22;1560;52.746;13.474;2023-04-24T01:24:45;9.50;99.90
3100;DHT22;1560;52.746;13.474;2023-04-24T01:27:14;9.50;99.90
3100;DHT22;1560;52.746;13.474;2023-04-24T01:29:43;9.50;99.90
3100;DHT22;1560;52.746;13.474;2023-04-24T01:34:50;9.50;99.90
3100;DHT22;1560;52.746;13.474;2023-04-24T01:37:19;9.60;99.90
3100;DHT22;1560;52.746;13.474;2023-04-24T01:42:26;9.70;99.90
3100;DHT22;1560;52.746;13.474;2023-04-24T01:44:55;9.80;99.90
3100;DHT22;1560;52.746;13.474;2023-04-24T01:47:24;9.90;99.90
3100;DHT22;1560;52.746;13.474;2023-04-24T01:49:54;10.00;99.90
3100;DHT22;1560;52.746;13.474;2023-04-24T01:52:23;10.10;99.90
3100;DHT22;1560;52.746;13.474;2023-04-24T01:54:53;10.10;99.90
3100;DHT22;1560;52.746;13.474;2023-04-24T02:00:01;10.30;99.90
3100;DHT22;1560;52.746;13.474;2023-04-24T02:02:31;10.40;99.90
3100;DHT22;1560;52.746;13.474;2023-04-24T02:05:00;10.40;99.90
3100;DHT22;1560;52.746;13.474;2023-04-24T02:07:30;10.50;99.90
3100;DHT22;1560;52.746;13.474;2023-04-24T02:10:00;10.50;99.90
3100;DHT22;1560;52.746;13.474;2023-04-24T02:15:10;10.60;99.90
3100;DHT22;1560;52.746;13.474;2023-04-24T02:17:40;10.60;99.90
3100;DHT22;1560;52.746;13.474;2023-04-24T02:20:09;10.70;99.90
3100;DHT22;1560;52.746;13.474;2023-04-24T02:22:38;10.70;99.90
3100;DHT22;1560;52.746;13.474;2023-04-24T02:25:08;10.70;99.90
3100;DHT22;1560;52.746;13.474;2023-04-24T02:27:37;10.70;99.90
3100;DHT22;1560;52.746;13.474;2023-04-24T02:32:44;10.80;99.90
3100;DHT22;1560;52.746;13.474;2023-04-24T02:35:12;10.80;99.90
3100;DHT22;1560;52.746;13.474;2023-04-24T02:40:19;10.80;99.90
3100;DHT22;1560;52.746;13.474;2023-04-24T02:42:48;10.80;99.90
3100;DHT22;1560;52.746;13.474;2023-04-24T02:45:17;10.80;99.90
3100;DHT22;1560;52.746;13.474;2023-04-24T02:50:25;10.90;99.90
3100;DHT22;1560;52.746;13.474;2023-04-24T02:52:54;10.90;99.90
3100;DHT22;1560;52.746;13.474;2023-04-24T02:55:22;10.90;99.90
3100;DHT22;1560;52.746;13.474;2023-04-24T02:57:51;10.80;99.90
3100;DHT22;1560;52.746;13.474;2023-04-24T03:02:58;10.80;99.90
3100;DHT22;1560;52.746;13.474;2023-04-24T03:05:27;10.80;99.90
3100;DHT22;1560;52.746;13.474;2023-04-24T03:07:56;10.90;99.90
3100;DHT22;1560;52.746;13.474;2023-04-24T03:13:02;10.90;99.90
3100;DHT22;1560;52.746;13.474;2023-04-24T03:15:31;10.90;99.90
3100;DHT22;1560;52.746;13.474;2023-04-24T03:20:37;10.80;99.90
3100;DHT22;1560;52.746;13.474;2023-04-24T03:23:05;10.90;99.90
3100;DHT22;1560;52.746;13.474;2023-04-24T03:25:34;10.80;99.90
3100;DHT22;1560;52.746;13.474;2023-04-24T03:28:03;10.80;99.90
3100;DHT22;1560;52.746;13.474;2023-04-24T03:30:32;10.80;99.90
3100;DHT22;1560;52.746;13.474;2023-04-24T03:33:00;10.90;99.90
3100;DHT22;1560;52.746;13.474;2023-04-24T03:35:29;10.90;99.90
3100;DHT22;1560;52.746;13.474;2023-04-24T03:37:57;10.90;99.90
3100;DHT22;1560;52.746;13.474;2023-04-24T03:40:26;10.90;99.90
3100;DHT22;1560;52.746;13.474;2023-04-24T03:42:56;10.90;99.90
3100;DHT22;1560;52.746;13.474;2023-04-24T03:50:38;10.90;99.90
3100;DHT22;1560;52.746;13.474;2023-04-24T03:53:07;11.00;99.90
3100;DHT22;1560;52.746;13.474;2023-04-24T03:55:36;10.90;99.90
3100;DHT22;1560;52.746;13.474;2023-04-24T03:58:04;11.00;99.90
3100;DHT22;1560;52.746;13.474;2023-04-24T04:00:33;11.00;99.90
3100;DHT22;1560;52.746;13.474;2023-04-24T04:03:02;11.10;99.90
3100;DHT22;1560;52.746;13.474;2023-04-24T04:05:30;11.10;99.90
3100;DHT22;1560;52.746;13.474;2023-04-24T04:07:59;11.10;99.90
3100;DHT22;1560;52.746;13.474;2023-04-24T04:13:06;11.10;99.90
3100;DHT22;1560;52.746;13.474;2023-04-24T04:15:34;11.10;99.90
3100;DHT22;1560;52.746;13.474;2023-04-24T04:18:03;11.10;99.90
3100;DHT22;1560;52.746;13.474;2023-04-24T04:20:31;11.10;99.90
3100;DHT22;1560;52.746;13.474;2023-04-24T04:25:38;11.00;99.90
3100;DHT22;1560;52.746;13.474;2023-04-24T04:28:06;11.10;99.90
3100;DHT22;1560;52.746;13.474;2023-04-24T04:30:35;11.00;99.90
3100;DHT22;1560;52.746;13.474;2023-04-24T04:33:05;11.00;99.90
3100;DHT22;1560;52.746;13.474;2023-04-24T04:35:35;11.00;99.90
3100;DHT22;1560;52.746;13.474;2023-04-24T04:40:42;11.10;99.90
3100;DHT22;1560;52.746;13.474;2023-04-24T04:43:10;11.10;99.90
3100;DHT22;1560;52.746;13.474;2023-04-24T04:45:40;11.00;99.90
3100;DHT22;1560;52.746;13.474;2023-04-24T04:48:10;11.00;99.90
3100;DHT22;1560;52.746;13.474;2023-04-24T04:53:20;11.10;99.90
3100;DHT22;1560;52.746;13.474;2023-04-24T04:55:48;11.10;99.90
3100;DHT22;1560;52.746;13.474;2023-04-24T04:58:17;11.00;99.90
3100;DHT22;1560;52.746;13.474;2023-04-24T05:03:23;11.00;99.90
3100;DHT22;1560;52.746;13.474;2023-04-24T05:05:52;11.10;99.90
3100;DHT22;1560;52.746;13.474;2023-04-24T05:08:36;11.10;99.90
3100;DHT22;1560;52.746;13.474;2023-04-24T05:11:08;11.10;99.90
3100;DHT22;1560;52.746;13.474;2023-04-24T05:13:37;11.10;99.90
3100;DHT22;1560;52.746;13.474;2023-04-24T05:16:05;11.10;99.90
3100;DHT22;1560;52.746;13.474;2023-04-24T05:18:34;11.10;99.90
3100;DHT22;1560;52.746;13.474;2023-04-24T05:21:03;11.10;99.90
3100;DHT22;1560;52.746;13.474;2023-04-24T05:23:32;11.20;99.90
3100;DHT22;1560;52.746;13.474;2023-04-24T05:26:00;11.20;99.90
3100;DHT22;1560;52.746;13.474;2023-04-24T05:28:29;11.20;99.90
3100;DHT22;1560;52.746;13.474;2023-04-24T05:30:58;11.30;99.90
3100;DHT22;1560;52.746;13.474;2023-04-24T05:33:28;11.30;99.90
3100;DHT22;1560;52.746;13.474;2023-04-24T05:35:57;11.40;99.90
3100;DHT22;1560;52.746;13.474;2023-04-24T05:38:26;11.40;99.90
3100;DHT22;1560;52.746;13.474;2023-04-24T05:40:54;11.50;99.90
3100;DHT22;1560;52.746;13.474;2023-04-24T05:43:23;11.50;99.90
3100;DHT22;1560;52.746;13.474;2023-04-24T05:45:52;11.50;99.90
3100;DHT22;1560;52.746;13.474;2023-04-24T05:48:21;11.50;99.90
3100;DHT22;1560;52.746;13.474;2023-04-24T05:53:28;11.60;99.90
3100;DHT22;1560;52.746;13.474;2023-04-24T05:55:56;11.60;99.90
3100;DHT22;1560;52.746;13.474;2023-04-24T05:58:25;11.60;99.90
3100;DHT22;1560;52.746;13.474;2023-04-24T06:00:53;11.60;99.90
3100;DHT22;1560;52.746;13.474;2023-04-24T06:03:22;11.50;99.90
3100;DHT22;1560;52.746;13.474;2023-04-24T06:05:51;11.60;99.90
3100;DHT22;1560;52.746;13.474;2023-04-24T06:08:19;11.60;99.90
3100;DHT22;1560;52.746;13.474;2023-04-24T06:13:27;11.70;99.90
3100;DHT22;1560;52.746;13.474;2023-04-24T06:15:56;11.80;99.90
3100;DHT22;1560;52.746;13.474;2023-04-24T06:18:24;11.90;99.90
3100;DHT22;1560;52.746;13.474;2023-04-24T06:20:53;12.00;99.90
3100;DHT22;1560;52.746;13.474;2023-04-24T06:23:23;12.10;99.90
3100;DHT22;1560;52.746;13.474;2023-04-24T06:25:52;12.20;99.90
3100;DHT22;1560;52.746;13.474;2023-04-24T06:30:58;12.30;99.90
3100;DHT22;1560;52.746;13.474;2023-04-24T06:33:27;12.40;99.90
3100;DHT22;1560;52.746;13.474;2023-04-24T06:35:55;12.50;99.90
3100;DHT22;1560;52.746;13.474;2023-04-24T06:38:24;12.60;99.90
3100;DHT22;1560;52.746;13.474;2023-04-24T06:40:53;12.70;99.90
3100;DHT22;1560;52.746;13.474;2023-04-24T06:43:22;12.80;99.90
3100;DHT22;1560;52.746;13.474;2023-04-24T06:48:28;13.00;99.90
3100;DHT22;1560;52.746;13.474;2023-04-24T06:50:57;13.20;99.90
3100;DHT22;1560;52.746;13.474;2023-04-24T06:53:25;13.30;99.90
3100;DHT22;1560;52.746;13.474;2023-04-24T06:55:54;13.50;99.90
3100;DHT22;1560;52.746;13.474;2023-04-24T06:58:25;13.60;99.90
3100;DHT22;1560;52.746;13.474;2023-04-24T07:00:53;13.70;99.90
3100;DHT22;1560;52.746;13.474;2023-04-24T07:03:22;13.80;99.90
3100;DHT22;1560;52.746;13.474;2023-04-24T07:08:29;14.00;99.90
3100;DHT22;1560;52.746;13.474;2023-04-24T07:10:58;14.20;99.90
3100;DHT22;1560;52.746;13.474;2023-04-24T07:13:28;14.40;99.90
3100;DHT22;1560;52.746;13.474;2023-04-24T07:15:57;14.50;99.90
3100;DHT22;1560;52.746;13.474;2023-04-24T07:18:25;14.60;99.90
3100;DHT22;1560;52.746;13.474;2023-04-24T07:23:33;14.40;99.90
3100;DHT22;1560;52.746;13.474;2023-04-24T07:26:01;14.40;99.90
3100;DHT22;1560;52.746;13.474;2023-04-24T07:28:30;14.50;99.90
3100;DHT22;1560;52.746;13.474;2023-04-24T07:30:59;14.60;99.90
3100;DHT22;1560;52.746;13.474;2023-04-24T07:33:27;14.70;99.90
3100;DHT22;1560;52.746;13.474;2023-04-24T07:35:56;14.60;99.90
3100;DHT22;1560;52.746;13.474;2023-04-24T07:38:25;14.50;99.90
3100;DHT22;1560;52.746;13.474;2023-04-24T07:40:54;14.60;99.90
3100;DHT22;1560;52.746;13.474;2023-04-24T07:43:23;14.80;99.90
3100;DHT22;1560;52.746;13.474;2023-04-24T07:45:52;14.90;99.90
3100;DHT22;1560;52.746;13.474;2023-04-24T07:51:11;15.30;99.90
3100;DHT22;1560;52.746;13.474;2023-04-24T07:53:40;15.50;99.90
3100;DHT22;1560;52.746;13.474;2023-04-24T07:56:09;15.60;27.90
3100;DHT22;1560;52.746;13.474;2023-04-24T07:58:38;15.70;22.10
3100;DHT22;1560;52.746;13.474;2023-04-24T08:01:07;15.90;1.00
3100;DHT22;1560;52.746;13.474;2023-04-24T08:03:36;16.10;1.00
3100;DHT22;1560;52.746;13.474;2023-04-24T08:08:43;16.30;1.00
3100;DHT22;1560;52.746;13.474;2023-04-24T08:11:11;16.40;1.00
3100;DHT22;1560;52.746;13.474;2023-04-24T08:13:40;16.60;1.00
3100;DHT22;1560;52.746;13.474;2023-04-24T08:16:08;16.70;99.90
3100;DHT22;1560;52.746;13.474;2023-04-24T08:18:40;16.70;99.90
3100;DHT22;1560;52.746;13.474;2023-04-24T08:23:46;16.80;99.90
3100;DHT22;1560;52.746;13.474;2023-04-24T08:28:52;17.10;99.90
3100;DHT22;1560;52.746;13.474;2023-04-24T08:31:21;17.30;99.90
3100;DHT22;1560;52.746;13.474;2023-04-24T08:33:52;17.40;99.90
3100;DHT22;1560;52.746;13.474;2023-04-24T08:36:21;17.30;1.00
3100;DHT22;1560;52.746;13.474;2023-04-24T08:38:49;17.20;1.00
3100;DHT22;1560;52.746;13.474;2023-04-24T08:41:20;17.00;99.90
3100;DHT22;1560;52.746;13.474;2023-04-24T08:43:52;16.80;10.40
3100;DHT22;1560;52.746;13.474;2023-04-24T08:46:23;16.70;1.00
3100;DHT22;1560;52.746;13.474;2023-04-24T08:49:11;16.60;1.00
3100;DHT22;1560;52.746;13.474;2023-04-24T08:51:40;16.50;1.00
3100;DHT22;1560;52.746;13.474;2023-04-24T08:54:09;16.50;1.00
3100;DHT22;1560;52.746;13.474;2023-04-24T08:56:39;16.60;1.00
3100;DHT22;1560;52.746;13.474;2023-04-24T08:59:09;16.80;99.90
3100;DHT22;1560;52.746;13.474;2023-04-24T09:01:42;16.70;1.00
3100;DHT22;1560;52.746;13.474;2023-04-24T09:04:11;16.60;1.00
3100;DHT22;1560;52.746;13.474;2023-04-24T09:06:41;16.30;48.60
3100;DHT22;1560;52.746;13.474;2023-04-24T09:09:11;16.00;99.90
3100;DHT22;1560;52.746;13.474;2023-04-24T09:11:41;16.00;99.90
3100;DHT22;1560;52.746;13.474;2023-04-24T09:14:11;16.20;99.90
3100;DHT22;1560;52.746;13.474;2023-04-24T09:16:39;16.50;99.90
3100;DHT22;1560;52.746;13.474;2023-04-24T09:19:08;16.50;1.00
3100;DHT22;1560;52.746;13.474;2023-04-24T09:21:37;16.60;95.60
3100;DHT22;1560;52.746;13.474;2023-04-24T09:26:45;16.60;1.00
3100;DHT22;1560;52.746;13.474;2023-04-24T09:29:16;16.50;26.30
3100;DHT22;1560;52.746;13.474;2023-04-24T09:31:45;16.50;80.50
3100;DHT22;1560;52.746;13.474;2023-04-24T09:34:14;16.50;99.90
3100;DHT22;1560;52.746;13.474;2023-04-24T09:36:43;16.60;14.30
3100;DHT22;1560;52.746;13.474;2023-04-24T09:39:13;16.60;99.90
3100;DHT22;1560;52.746;13.474;2023-04-24T09:41:46;16.50;99.90
3100;DHT22;1560;52.746;13.474;2023-04-24T09:44:16;16.50;1.00
3100;DHT22;1560;52.746;13.474;2023-04-24T09:49:25;16.30;99.90
3100;DHT22;1560;52.746;13.474;2023-04-24T09:52:02;16.20;1.00
3100;DHT22;1560;52.746;13.474;2023-04-24T09:54:31;16.40;1.00
3100;DHT22;1560;52.746;13.474;2023-04-24T09:57:00;16.40;1.00
3100;DHT22;1560;52.746;13.474;2023-04-24T09:59:30;16.40;99.90
3100;DHT22;1560;52.746;13.474;2023-04-24T10:02:00;16.30;1.00
3100;DHT22;1560;52.746;13.474;2023-04-24T10:07:09;16.60;99.90
3100;DHT22;1560;52.746;13.474;2023-04-24T10:09:37;16.80;99.90
3100;DHT22;1560;52.746;13.474;2023-04-24T10:12:06;16.70;99.90
3100;DHT22;1560;52.746;13.474;2023-04-24T10:14:35;16.80;99.90
3100;DHT22;1560;52.746;13.474;2023-04-24T10:19:42;16.70;99.90
3100;DHT22;1560;52.746;13.474;2023-04-24T10:22:12;16.60;99.90
3100;DHT22;1560;52.746;13.474;2023-04-24T10:24:41;16.60;99.90
3100;DHT22;1560;52.746;13.474;2023-04-24T10:27:10;16.60;99.90
3100;DHT22;1560;52.746;13.474;2023-04-24T10:29:39;16.50;99.90
3100;DHT22;1560;52.746;13.474;2023-04-24T10:32:08;16.40;99.90
3100;DHT22;1560;52.746;13.474;2023-04-24T10:34:37;16.20;99.90
3100;DHT22;1560;52.746;13.474;2023-04-24T10:37:06;16.20;99.90
3100;DHT22;1560;52.746;13.474;2023-04-24T10:39:35;16.20;99.90
3100;DHT22;1560;52.746;13.474;2023-04-24T10:42:15;16.20;99.90
3100;DHT22;1560;52.746;13.474;2023-04-24T10:44:43;16.20;99.90
3100;DHT22;1560;52.746;13.474;2023-04-24T10:47:14;16.20;99.90
3100;DHT22;1560;52.746;13.474;2023-04-24T10:49:43;16.30;99.90
3100;DHT22;1560;52.746;13.474;2023-04-24T10:52:12;16.30;99.90
3100;DHT22;1560;52.746;13.474;2023-04-24T10:54:46;16.50;99.90
3100;DHT22;1560;52.746;13.474;2023-04-24T10:57:27;16.50;99.90
3100;DHT22;1560;52.746;13.474;2023-04-24T11:03:00;16.50;99.90
3100;DHT22;1560;52.746;13.474;2023-04-24T11:05:50;16.40;99.90
3100;DHT22;1560;52.746;13.474;2023-04-24T11:11:08;16.30;99.90
3100;DHT22;1560;52.746;13.474;2023-04-24T11:16:45;16.20;99.90
3100;DHT22;1560;52.746;13.474;2023-04-24T11:22:00;16.20;99.90
3100;DHT22;1560;52.746;13.474;2023-04-24T11:24:38;16.20;99.90
3100;DHT22;1560;52.746;13.474;2023-04-24T11:27:12;16.30;99.90
3100;DHT22;1560;52.746;13.474;2023-04-24T11:29:46;16.30;99.90
3100;DHT22;1560;52.746;13.474;2023-04-24T11:34:55;16.50;99.90
3100;DHT22;1560;52.746;13.474;2023-04-24T11:37:26;16.60;99.90
3100;DHT22;1560;52.746;13.474;2023-04-24T11:39:56;16.60;99.90
3100;DHT22;1560;52.746;13.474;2023-04-24T11:45:10;16.70;99.90
3100;DHT22;1560;52.746;13.474;2023-04-24T11:47:40;16.60;99.90
3100;DHT22;1560;52.746;13.474;2023-04-24T11:50:11;16.70;99.90
3100;DHT22;1560;52.746;13.474;2023-04-24T11:52:42;16.90;99.90
3100;DHT22;1560;52.746;13.474;2023-04-24T11:55:24;17.10;99.90
3100;DHT22;1560;52.746;13.474;2023-04-24T11:57:55;17.30;99.90
3100;DHT22;1560;52.746;13.474;2023-04-24T12:00:26;17.60;99.90
3100;DHT22;1560;52.746;13.474;2023-04-24T12:05:41;18.50;99.90
3100;DHT22;1560;52.746;13.474;2023-04-24T12:08:11;18.40;99.90
3100;DHT22;1560;52.746;13.474;2023-04-24T12:10:39;18.10;99.90
3100;DHT22;1560;52.746;13.474;2023-04-24T12:13:10;17.80;99.90
3100;DHT22;1560;52.746;13.474;2023-04-24T12:15:40;17.70;99.90
3100;DHT22;1560;52.746;13.474;2023-04-24T12:18:12;17.30;99.90
3100;DHT22;1560;52.746;13.474;2023-04-24T12:23:35;17.00;99.90
3100;DHT22;1560;52.746;13.474;2023-04-24T12:26:05;16.90;99.90
3100;DHT22;1560;52.746;13.474;2023-04-24T12:28:38;17.00;99.90
3100;DHT22;1560;52.746;13.474;2023-04-24T12:31:07;17.20;99.90
3100;DHT22;1560;52.746;13.474;2023-04-24T12:36:14;17.60;99.90
3100;DHT22;1560;52.746;13.474;2023-04-24T12:38:44;17.80;99.90
3100;DHT22;1560;52.746;13.474;2023-04-24T12:43:54;18.10;99.90
3100;DHT22;1560;52.746;13.474;2023-04-24T12:46:25;17.90;99.90
3100;DHT22;1560;52.746;13.474;2023-04-24T12:48:54;17.80;99.90
3100;DHT22;1560;52.746;13.474;2023-04-24T12:51:24;17.60;99.90
3100;DHT22;1560;52.746;13.474;2023-04-24T12:53:52;17.40;99.90
3100;DHT22;1560;52.746;13.474;2023-04-24T12:56:21;17.10;99.90
3100;DHT22;1560;52.746;13.474;2023-04-24T12:58:49;17.00;99.90
3100;DHT22;1560;52.746;13.474;2023-04-24T13:01:19;16.90;99.90
3100;DHT22;1560;52.746;13.474;2023-04-24T13:03:48;16.70;99.90
3100;DHT22;1560;52.746;13.474;2023-04-24T13:08:54;16.70;99.90
3100;DHT22;1560;52.746;13.474;2023-04-24T13:11:24;16.70;99.90
3100;DHT22;1560;52.746;13.474;2023-04-24T13:13:54;16.60;99.90
3100;DHT22;1560;52.746;13.474;2023-04-24T13:16:23;16.10;99.90
3100;DHT22;1560;52.746;13.474;2023-04-24T13:18:51;15.90;99.90
3100;DHT22;1560;52.746;13.474;2023-04-24T13:21:21;15.90;99.90
3100;DHT22;1560;52.746;13.474;2023-04-24T13:23:49;15.80;99.90
3100;DHT22;1560;52.746;13.474;2023-04-24T13:26:19;15.90;99.90
3100;DHT22;1560;52.746;13.474;2023-04-24T13:28:48;15.90;99.90
3100;DHT22;1560;52.746;13.474;2023-04-24T13:31:16;15.70;99.90
3100;DHT22;1560;52.746;13.474;2023-04-24T13:33:45;15.70;99.90
3100;DHT22;1560;52.746;13.474;2023-04-24T13:36:14;15.60;99.90
3100;DHT22;1560;52.746;13.474;2023-04-24T13:38:44;15.50;99.90
3100;DHT22;1560;52.746;13.474;2023-04-24T13:41:13;15.70;99.90
3100;DHT22;1560;52.746;13.474;2023-04-24T13:43:42;15.80;99.90
3100;DHT22;1560;52.746;13.474;2023-04-24T13:46:10;16.00;99.90
3100;DHT22;1560;52.746;13.474;2023-04-24T13:48:39;15.90;99.90
3100;DHT22;1560;52.746;13.474;2023-04-24T13:51:07;15.70;99.90
3100;DHT22;1560;52.746;13.474;2023-04-24T13:53:37;15.50;99.90
3100;DHT22;1560;52.746;13.474;2023-04-24T13:56:06;15.60;99.90
3100;DHT22;1560;52.746;13.474;2023-04-24T13:58:36;15.50;99.90
3100;DHT22;1560;52.746;13.474;2023-04-24T14:01:05;15.50;99.90
3100;DHT22;1560;52.746;13.474;2023-04-24T14:03:34;15.60;99.90
3100;DHT22;1560;52.746;13.474;2023-04-24T14:06:05;15.70;99.90
3100;DHT22;1560;52.746;13.474;2023-04-24T14:11:11;15.90;99.90
3100;DHT22;1560;52.746;13.474;2023-04-24T14:13:41;16.10;99.90
3100;DHT22;1560;52.746;13.474;2023-04-24T14:16:10;16.20;99.90
3100;DHT22;1560;52.746;13.474;2023-04-24T14:18:39;16.30;99.90
3100;DHT22;1560;52.746;13.474;2023-04-24T14:21:08;16.20;99.90
3100;DHT22;1560;52.746;13.474;2023-04-24T14:23:37;16.20;99.90
3100;DHT22;1560;52.746;13.474;2023-04-24T14:26:05;16.20;99.90
3100;DHT22;1560;52.746;13.474;2023-04-24T14:28:34;16.30;99.90
3100;DHT22;1560;52.746;13.474;2023-04-24T14:31:03;16.30;99.90
3100;DHT22;1560;52.746;13.474;2023-04-24T14:33:32;16.10;99.90
3100;DHT22;1560;52.746;13.474;2023-04-24T14:36:00;16.10;99.90
3100;DHT22;1560;52.746;13.474;2023-04-24T14:41:10;15.80;99.90
3100;DHT22;1560;52.746;13.474;2023-04-24T14:43:39;15.90;99.90
3100;DHT22;1560;52.746;13.474;2023-04-24T14:46:07;15.90;99.90
3100;DHT22;1560;52.746;13.474;2023-04-24T14:48:36;15.90;99.90
3100;DHT22;1560;52.746;13.474;2023-04-24T14:51:05;15.90;99.90
3100;DHT22;1560;52.746;13.474;2023-04-24T14:56:12;16.10;99.90
3100;DHT22;1560;52.746;13.474;2023-04-24T15:01:20;16.20;99.90
3100;DHT22;1560;52.746;13.474;2023-04-24T15:03:52;16.20;99.90
3100;DHT22;1560;52.746;13.474;2023-04-24T15:09:00;16.30;99.90
3100;DHT22;1560;52.746;13.474;2023-04-24T15:11:29;16.40;99.50
3100;DHT22;1560;52.746;13.474;2023-04-24T15:13:57;16.50;96.10
3100;DHT22;1560;52.746;13.474;2023-04-24T15:16:26;16.60;97.20
3100;DHT22;1560;52.746;13.474;2023-04-24T15:18:55;16.60;94.10
3100;DHT22;1560;52.746;13.474;2023-04-24T15:24:03;16.70;95.00
3100;DHT22;1560;52.746;13.474;2023-04-24T15:29:10;16.40;94.20
3100;DHT22;1560;52.746;13.474;2023-04-24T15:31:39;16.40;93.20
3100;DHT22;1560;52.746;13.474;2023-04-24T15:34:07;16.50;94.00
3100;DHT22;1560;52.746;13.474;2023-04-24T15:36:36;16.50;92.70
3100;DHT22;1560;52.746;13.474;2023-04-24T15:39:05;16.50;94.50
3100;DHT22;1560;52.746;13.474;2023-04-24T15:41:34;16.50;93.30
3100;DHT22;1560;52.746;13.474;2023-04-24T15:44:02;16.40;93.50
3100;DHT22;1560;52.746;13.474;2023-04-24T15:46:31;16.30;87.00
3100;DHT22;1560;52.746;13.474;2023-04-24T15:49:01;16.30;93.90
3100;DHT22;1560;52.746;13.474;2023-04-24T15:54:09;16.00;93.70
3100;DHT22;1560;52.746;13.474;2023-04-24T15:59:15;15.80;93.90
3100;DHT22;1560;52.746;13.474;2023-04-24T16:07:29;15.50;94.30
3100;DHT22;1560;52.746;13.474;2023-04-24T16:09:58;15.40;96.40
3100;DHT22;1560;52.746;13.474;2023-04-24T16:15:07;15.30;96.40
3100;DHT22;1560;52.746;13.474;2023-04-24T16:17:36;15.20;96.50
3100;DHT22;1560;52.746;13.474;2023-04-24T16:20:06;15.20;98.40
3100;DHT22;1560;52.746;13.474;2023-04-24T16:22:37;15.10;97.50
3100;DHT22;1560;52.746;13.474;2023-04-24T16:25:07;15.20;98.80
3100;DHT22;1560;52.746;13.474;2023-04-24T16:27:37;15.10;99.20
3100;DHT22;1560;52.746;13.474;2023-04-24T16:30:08;15.00;95.00
3100;DHT22;1560;52.746;13.474;2023-04-24T16:32:37;15.00;97.30
3100;DHT22;1560;52.746;13.474;2023-04-24T16:35:06;15.00;96.60
3100;DHT22;1560;52.746;13.474;2023-04-24T16:37:35;15.00;96.30
3100;DHT22;1560;52.746;13.474;2023-04-24T16:40:06;15.00;96.40
3100;DHT22;1560;52.746;13.474;2023-04-24T16:42:37;15.00;94.40
3100;DHT22;1560;52.746;13.474;2023-04-24T16:45:08;14.90;94.80
3100;DHT22;1560;52.746;13.474;2023-04-24T16:47:37;15.00;95.20
3100;DHT22;1560;52.746;13.474;2023-04-24T16:50:07;15.00;96.00
3100;DHT22;1560;52.746;13.474;2023-04-24T16:52:36;14.90;94.60
3100;DHT22;1560;52.746;13.474;2023-04-24T16:55:06;14.90;96.70
3100;DHT22;1560;52.746;13.474;2023-04-24T16:57:36;14.70;99.80
3100;DHT22;1560;52.746;13.474;2023-04-24T17:00:07;14.60;99.90
3100;DHT22;1560;52.746;13.474;2023-04-24T17:02:39;14.40;99.90
3100;DHT22;1560;52.746;13.474;2023-04-24T17:05:08;14.30;99.90
3100;DHT22;1560;52.746;13.474;2023-04-24T17:07:37;14.30;99.90
3100;DHT22;1560;52.746;13.474;2023-04-24T17:10:08;14.10;99.90
3100;DHT22;1560;52.746;13.474;2023-04-24T17:12:37;14.10;99.90
3100;DHT22;1560;52.746;13.474;2023-04-24T17:15:07;14.10;99.90
3100;DHT22;1560;52.746;13.474;2023-04-24T17:17:36;14.00;99.90
3100;DHT22;1560;52.746;13.474;2023-04-24T17:20:06;13.90;99.90
3100;DHT22;1560;52.746;13.474;2023-04-24T17:22:35;13.80;99.90
3100;DHT22;1560;52.746;13.474;2023-04-24T17:25:05;13.80;99.90
3100;DHT22;1560;52.746;13.474;2023-04-24T17:27:34;13.70;99.90
3100;DHT22;1560;52.746;13.474;2023-04-24T17:32:41;13.60;99.90
3100;DHT22;1560;52.746;13.474;2023-04-24T17:35:11;13.50;99.90
3100;DHT22;1560;52.746;13.474;2023-04-24T17:37:42;13.60;99.90
3100;DHT22;1560;52.746;13.474;2023-04-24T17:40:11;13.60;99.90
3100;DHT22;1560;52.746;13.474;2023-04-24T17:45:18;13.30;99.90
3100;DHT22;1560;52.746;13.474;2023-04-24T17:50:32;13.20;99.90
3100;DHT22;1560;52.746;13.474;2023-04-24T17:53:00;13.10;99.90
3100;DHT22;1560;52.746;13.474;2023-04-24T17:55:29;13.10;99.90
3100;DHT22;1560;52.746;13.474;2023-04-24T18:00:35;13.00;99.90
3100;DHT22;1560;52.746;13.474;2023-04-24T18:03:04;12.90;99.90
3100;DHT22;1560;52.746;13.474;2023-04-24T18:05:35;12.90;99.90
3100;DHT22;1560;52.746;13.474;2023-04-24T18:10:42;12.70;99.90
3100;DHT22;1560;52.746;13.474;2023-04-24T18:15:49;12.60;99.90
3100;DHT22;1560;52.746;13.474;2023-04-24T18:20:57;12.40;99.90
3100;DHT22;1560;52.746;13.474;2023-04-24T18:23:26;12.30;99.90
3100;DHT22;1560;52.746;13.474;2023-04-24T18:28:33;12.20;99.90
3100;DHT22;1560;52.746;13.474;2023-04-24T18:33:52;12.20;99.90
3100;DHT22;1560;52.746;13.474;2023-04-24T18:36:22;12.10;99.90
3100;DHT22;1560;52.746;13.474;2023-04-24T18:41:35;11.90;99.90
3100;DHT22;1560;52.746;13.474;2023-04-24T18:44:04;11.80;99.90
3100;DHT22;1560;52.746;13.474;2023-04-24T18:49:10;11.70;99.90
3100;DHT22;1560;52.746;13.474;2023-04-24T18:51:39;11.60;99.90
3100;DHT22;1560;52.746;13.474;2023-04-24T18:54:08;11.50;99.90
3100;DHT22;1560;52.746;13.474;2023-04-24T18:59:19;11.30;99.90
3100;DHT22;1560;52.746;13.474;2023-04-24T19:01:51;11.30;99.90
3100;DHT22;1560;52.746;13.474;2023-04-24T19:04:20;11.10;99.90
3100;DHT22;1560;52.746;13.474;2023-04-24T19:09:27;10.80;99.90
3100;DHT22;1560;52.746;13.474;2023-04-24T19:11:56;10.70;99.90